Time;durP1;ratioP1;P1;durP2;ratioP2;P2;SDS_P1;SDS_P2;PMS_P1;PMS_P2;Temp;Humidity;BMP_temperature;BMP_pressure;BME280_temperature;BME280_humidity;BME280_pressure;Samples;Min_cycle;Max_cycle;Signal;HPM_P1;HPM_P2
2023/05/06 00:00:02;;;;;;;2.92;2.05;;;19.70;87.80;;;;;;4997036;28;20022;-71
2023/05/06 00:02:28;;;;;;;3.65;2.08;;;19.80;87.90;;;;;;4996612;28;20069;-72
2023/05/06 00:04:54;;;;;;;5.72;2.20;;;19.70;88.00;;;;;;4996905;28;20058;-73
2023/05/06 00:07:20;;;;;;;3.75;2.00;;;19.70;88.30;;;;;;4996330;28;20054;-71
2023/05/06 00:09:46;;;;;;;4.97;2.28;;;19.60;88.30;;;;;;4996423;28;20015;-70
2023/05/06 00:12:12;;;;;;;3.58;1.98;;;19.50;88.50;;;;;;4996209;28;20034;-72
2023/05/06 00:14:37;;;;;;;3.28;2.17;;;19.60;88.40;;;;;;4996354;28;20018;-72
2023/05/06 00:17:03;;;;;;;3.42;1.90;;;19.60;88.40;;;;;;4996198;28;20026;-73
2023/05/06 00:19:29;;;;;;;4.18;1.90;;;19.60;88.30;;;;;;4996244;28;20069;-71
2023/05/06 00:21:54;;;;;;;4.70;2.30;;;19.60;88.40;;;;;;4996271;28;20490;-72
2023/05/06 00:24:20;;;;;;;2.72;1.75;;;19.60;88.40;;;;;;5011276;28;20030;-72
2023/05/06 00:26:45;;;;;;;4.57;2.30;;;19.60;88.40;;;;;;4995890;28;20033;-72
2023/05/06 00:29:11;;;;;;;3.28;1.88;;;19.50;88.40;;;;;;4996030;28;20018;-72
2023/05/06 00:31:37;;;;;;;3.75;2.38;;;19.60;88.40;;;;;;4996251;28;20361;-73
2023/05/06 00:34:02;;;;;;;5.07;1.88;;;19.50;88.50;;;;;;4995800;28;20026;-71
2023/05/06 00:36:28;;;;;;;5.32;2.40;;;19.50;88.50;;;;;;4995818;28;20030;-71
2023/05/06 00:38:53;;;;;;;3.22;1.70;;;19.50;88.50;;;;;;4995869;28;20029;-69
2023/05/06 00:41:19;;;;;;;2.85;1.42;;;19.50;88.60;;;;;;4994030;28;20023;-69
2023/05/06 00:43:45;;;;;;;3.90;2.03;;;19.50;88.60;;;;;;4995744;28;20026;-71
2023/05/06 00:46:11;;;;;;;6.28;1.95;;;19.50;88.70;;;;;;4995161;28;20081;-71
2023/05/06 00:48:37;;;;;;;3.85;2.08;;;19.50;88.70;;;;;;4995486;28;20468;-72
2023/05/06 00:51:03;;;;;;;2.97;1.75;;;19.50;88.80;;;;;;4995716;28;20105;-75
2023/05/06 00:53:29;;;;;;;4.65;2.03;;;19.40;88.90;;;;;;4995657;28;20169;-72
2023/05/06 00:55:55;;;;;;;3.40;1.80;;;19.40;89.10;;;;;;4995313;28;20555;-72
2023/05/06 00:58:21;;;;;;;3.78;1.90;;;19.30;89.00;;;;;;4995518;28;20023;-70
2023/05/06 01:00:48;;;;;;;2.85;1.85;;;19.30;89.20;;;;;;4995362;28;20019;-72
2023/05/06 01:03:13;;;;;;;3.53;1.85;;;19.40;89.20;;;;;;4994110;28;20456;-69
2023/05/06 01:06:06;;;;;;;2.90;2.00;;;19.30;89.20;;;;;;4995749;28;20157;-72
2023/05/06 01:08:43;;;;;;;2.75;1.77;;;19.30;89.50;;;;;;4994606;28;20043;-72
2023/05/06 01:11:48;;;;;;;2.88;1.98;;;19.20;89.60;;;;;;4995384;28;20026;-70
2023/05/06 01:14:40;;;;;;;2.38;1.75;;;19.20;89.70;;;;;;4989234;28;20062;-72
2023/05/06 01:17:10;;;;;;;4.43;2.00;;;19.20;89.70;;;;;;4995272;28;20066;-69
2023/05/06 01:19:40;;;;;;;5.75;2.15;;;19.20;89.60;;;;;;4994877;28;20097;-72
2023/05/06 01:22:07;;;;;;;2.85;2.05;;;19.20;89.80;;;;;;4991052;28;20531;-70
2023/05/06 01:24:43;;;;;;;4.18;1.60;;;19.10;89.90;;;;;;4990194;28;20076;-73
2023/05/06 01:27:10;;;;;;;2.95;1.95;;;19.10;89.70;;;;;;4973158;28;20490;-72
2023/05/06 01:29:40;;;;;;;3.53;1.55;;;19.10;89.70;;;;;;4974975;28;20023;-70
2023/05/06 01:32:32;;;;;;;7.18;2.30;;;19.10;89.90;;;;;;4975614;28;20026;-69
2023/05/06 01:35:02;;;;;;;4.70;2.45;;;19.10;90.00;;;;;;4975231;28;20030;-72
2023/05/06 01:37:49;;;;;;;4.05;2.30;;;19.00;90.00;;;;;;4975097;28;20042;-73
2023/05/06 01:40:16;;;;;;;3.72;1.67;;;19.00;90.10;;;;;;4975187;28;20011;-71
2023/05/06 01:42:48;;;;;;;3.40;2.17;;;19.00;90.10;;;;;;4975446;28;20038;-70
2023/05/06 01:45:15;;;;;;;4.30;2.00;;;19.00;90.20;;;;;;4975125;28;20029;-73
2023/05/06 01:47:41;;;;;;;2.90;2.28;;;18.90;90.30;;;;;;4975330;28;20748;-73
2023/05/06 01:50:07;;;;;;;4.75;1.98;;;18.80;90.30;;;;;;4975013;28;20027;-70
2023/05/06 01:52:33;;;;;;;4.38;2.17;;;18.80;90.40;;;;;;4973429;28;20015;-72
2023/05/06 01:54:58;;;;;;;4.72;2.30;;;18.90;90.40;;;;;;4974943;28;20034;-72
2023/05/06 01:57:24;;;;;;;4.93;2.05;;;18.80;90.40;;;;;;4973700;28;20097;-73
2023/05/06 01:59:50;;;;;;;4.75;2.30;;;18.80;90.80;;;;;;4989836;28;20026;-74
2023/05/06 02:02:16;;;;;;;3.95;2.03;;;18.80;90.50;;;;;;4974247;28;20030;-72
2023/05/06 02:04:41;;;;;;;4.60;2.60;;;18.70;90.50;;;;;;4973712;28;20039;-74
2023/05/06 02:07:07;;;;;;;3.90;2.20;;;18.70;90.50;;;;;;4974495;28;20030;-70
2023/05/06 02:09:33;;;;;;;2.95;1.90;;;18.70;90.80;;;;;;4974768;28;20531;-72
2023/05/06 02:11:58;;;;;;;4.97;2.08;;;18.70;90.60;;;;;;4974828;28;20469;-73
2023/05/06 02:14:24;;;;;;;3.45;2.17;;;18.70;90.60;;;;;;4974792;28;20102;-72
2023/05/06 02:16:49;;;;;;;3.88;2.20;;;18.60;90.70;;;;;;4974548;28;20039;-70
2023/05/06 02:19:15;;;;;;;5.22;2.63;;;18.60;90.80;;;;;;4974731;28;20026;-72
2023/05/06 02:21:41;;;;;;;3.72;2.28;;;18.50;90.80;;;;;;4974359;28;20058;-73
2023/05/06 02:24:06;;;;;;;4.68;2.53;;;18.60;90.80;;;;;;4974608;28;20019;-71
2023/05/06 02:26:32;;;;;;;3.70;2.30;;;18.50;90.80;;;;;;4974445;28;20035;-70
2023/05/06 02:28:57;;;;;;;3.00;2.55;;;18.50;90.90;;;;;;4974626;28;20019;-71
2023/05/06 02:31:23;;;;;;;3.15;1.92;;;18.50;91.00;;;;;;4974399;28;20102;-70
2023/05/06 02:33:48;;;;;;;4.03;3.63;;;18.50;91.00;;;;;;4989924;28;20038;-72
2023/05/06 02:36:14;;;;;;;6.25;4.90;;;18.50;91.00;;;;;;4974062;28;20035;-72
2023/05/06 02:38:40;;;;;;;5.75;3.00;;;18.40;91.00;;;;;;4974633;28;20023;-69
2023/05/06 02:41:05;;;;;;;4.75;2.45;;;18.40;91.00;;;;;;4974376;28;20496;-73
2023/05/06 02:43:31;;;;;;;4.43;2.50;;;18.50;91.00;;;;;;4974484;28;20023;-69
2023/05/06 02:45:56;;;;;;;4.13;2.58;;;18.40;91.00;;;;;;4974264;28;20358;-70
2023/05/06 02:48:22;;;;;;;3.50;2.33;;;18.50;91.00;;;;;;4974174;28;20436;-73
2023/05/06 02:50:48;;;;;;;5.03;2.50;;;18.50;91.00;;;;;;4973893;28;20078;-72
2023/05/06 02:53:13;;;;;;;7.80;2.20;;;18.50;91.00;;;;;;4974285;28;20081;-73
2023/05/06 02:55:39;;;;;;;3.65;2.92;;;18.50;91.00;;;;;;4974075;28;20459;-74
2023/05/06 02:58:04;;;;;;;3.92;2.40;;;18.40;91.10;;;;;;4974300;28;20457;-72
2023/05/06 03:00:30;;;;;;;3.13;2.58;;;18.40;91.20;;;;;;4974072;28;20053;-70
2023/05/06 03:02:56;;;;;;;6.15;3.08;;;18.30;91.20;;;;;;4975006;28;20122;-69
2023/05/06 03:05:21;;;;;;;4.47;2.67;;;18.30;91.30;;;;;;4980104;28;20372;-71
2023/05/06 03:07:47;;;;;;;4.68;2.60;;;18.30;91.30;;;;;;4980504;28;20038;-72
2023/05/06 03:10:13;;;;;;;8.38;2.67;;;18.20;91.40;;;;;;4980630;28;20023;-73
2023/05/06 03:12:38;;;;;;;4.22;2.55;;;18.20;91.40;;;;;;4980439;28;20081;-71
2023/05/06 03:15:05;;;;;;;4.88;3.17;;;18.20;91.40;;;;;;4980488;28;20023;-73
2023/05/06 03:17:31;;;;;;;4.63;3.25;;;18.20;91.50;;;;;;4995353;28;20468;-70
2023/05/06 03:19:56;;;;;;;5.22;3.28;;;18.20;91.40;;;;;;4980357;28;20015;-71
2023/05/06 03:22:22;;;;;;;3.88;2.72;;;18.10;91.40;;;;;;4980379;28;20066;-72
2023/05/06 03:24:48;;;;;;;4.25;2.80;;;18.20;91.40;;;;;;4980544;28;20030;-72
2023/05/06 03:27:13;;;;;;;4.13;2.92;;;18.20;91.40;;;;;;4980272;28;20030;-73
2023/05/06 03:29:39;;;;;;;4.38;2.92;;;18.10;91.40;;;;;;4979136;28;20034;-74
2023/05/06 03:32:05;;;;;;;5.03;2.90;;;18.10;91.40;;;;;;4980197;28;20019;-71
2023/05/06 03:34:30;;;;;;;5.03;2.97;;;18.10;91.50;;;;;;4980139;28;20034;-71
2023/05/06 03:36:56;;;;;;;3.90;2.75;;;18.00;91.60;;;;;;4980052;28;20047;-72
2023/05/06 03:39:22;;;;;;;3.83;2.88;;;18.00;91.60;;;;;;4980293;28;20030;-73
2023/05/06 03:41:48;;;;;;;5.93;3.22;;;18.00;91.60;;;;;;4980189;28;20027;-73
2023/05/06 03:44:13;;;;;;;3.47;2.72;;;18.00;91.60;;;;;;4980414;28;20030;-70
2023/05/06 03:46:40;;;;;;;4.55;2.70;;;18.00;91.60;;;;;;4979988;28;20081;-71
2023/05/06 03:49:06;;;;;;;4.32;2.53;;;18.00;91.60;;;;;;4979979;28;20426;-73
2023/05/06 03:51:32;;;;;;;3.60;2.70;;;18.00;91.50;;;;;;4980077;28;20023;-69
2023/05/06 03:53:58;;;;;;;3.97;3.22;;;18.00;91.60;;;;;;4980116;28;20392;-71
2023/05/06 03:56:24;;;;;;;3.83;2.70;;;18.00;91.70;;;;;;4979958;28;20057;-71
2023/05/06 03:58:49;;;;;;;5.38;3.15;;;17.90;91.70;;;;;;4980221;28;20023;-74
2023/05/06 04:01:17;;;;;;;4.38;3.05;;;17.90;91.80;;;;;;4980287;28;20027;-72
2023/05/06 04:03:43;;;;;;;4.40;3.30;;;17.90;91.80;;;;;;4979684;28;20037;-71
2023/05/06 04:06:08;;;;;;;5.57;2.63;;;17.90;91.80;;;;;;4980107;28;20106;-73
2023/05/06 04:08:34;;;;;;;3.20;2.53;;;17.80;91.90;;;;;;4979919;28;20117;-73
2023/05/06 04:11:04;;;;;;;6.13;3.30;;;17.80;91.90;;;;;;4980071;28;20089;-71
2023/05/06 04:13:30;;;;;;;3.67;2.80;;;17.80;91.90;;;;;;4980444;28;20085;-73
2023/05/06 04:15:56;;;;;;;4.38;3.10;;;17.80;91.90;;;;;;4977547;28;20492;-73
2023/05/06 04:18:21;;;;;;;5.00;2.92;;;17.90;91.90;;;;;;4976356;28;20120;-74
2023/05/06 04:20:47;;;;;;;5.47;2.85;;;17.80;91.90;;;;;;4977040;28;20023;-73
2023/05/06 04:23:13;;;;;;;4.32;2.78;;;17.80;92.00;;;;;;4976763;28;20122;-74
2023/05/06 04:25:41;;;;;;;4.55;3.53;;;17.80;92.10;;;;;;4976923;28;20027;-72
2023/05/06 04:28:13;;;;;;;3.88;3.30;;;17.80;92.10;;;;;;4976683;28;20384;-72
2023/05/06 04:30:39;;;;;;;4.90;3.25;;;17.70;92.10;;;;;;4976676;28;20018;-73
2023/05/06 04:33:06;;;;;;;5.57;3.55;;;17.70;92.10;;;;;;4976244;28;20373;-73
2023/05/06 04:35:32;;;;;;;5.20;3.50;;;17.70;92.10;;;;;;4976778;28;20085;-72
2023/05/06 04:37:58;;;;;;;4.15;3.40;;;17.70;92.20;;;;;;4976375;28;20039;-73
2023/05/06 04:40:25;;;;;;;8.32;3.97;;;17.70;92.20;;;;;;4976570;28;20039;-71
2023/05/06 04:42:51;;;;;;;5.50;3.30;;;17.70;92.50;;;;;;4976340;28;20030;-71
2023/05/06 04:45:17;;;;;;;4.03;3.42;;;17.70;92.30;;;;;;4976513;28;20035;-73
2023/05/06 04:47:43;;;;;;;4.97;3.00;;;17.70;92.30;;;;;;4976114;28;20026;-69
2023/05/06 04:50:09;;;;;;;3.97;3.03;;;17.70;92.30;;;;;;4976384;28;20361;-72
2023/05/06 04:52:35;;;;;;;4.25;3.55;;;17.70;92.30;;;;;;4976165;28;20030;-69
2023/05/06 04:55:01;;;;;;;4.35;3.33;;;17.70;92.40;;;;;;4976131;28;20030;-74
2023/05/06 04:57:27;;;;;;;5.88;3.35;;;17.70;92.40;;;;;;4976238;28;20031;-69
2023/05/06 04:59:52;;;;;;;4.97;3.08;;;17.70;92.50;;;;;;4976196;28;20388;-71
2023/05/06 05:02:18;;;;;;;4.30;3.28;;;17.60;92.50;;;;;;4990760;28;20388;-71
2023/05/06 05:04:43;;;;;;;6.13;4.00;;;17.70;92.60;;;;;;4976149;28;20029;-74
2023/05/06 05:07:09;;;;;;;4.25;3.40;;;17.60;92.60;;;;;;4976026;28;20427;-70
2023/05/06 05:09:35;;;;;;;4.03;3.00;;;17.70;92.70;;;;;;4975856;28;20034;-71
2023/05/06 05:12:01;;;;;;;3.88;3.00;;;17.70;92.70;;;;;;4975976;28;20074;-73
2023/05/06 05:14:27;;;;;;;5.47;3.28;;;17.70;92.70;;;;;;4975108;28;20062;-70
2023/05/06 05:16:52;;;;;;;3.72;3.17;;;17.60;92.80;;;;;;4975599;28;20043;-73
2023/05/06 05:19:18;;;;;;;3.42;2.70;;;17.70;92.80;;;;;;4975711;28;20491;-69
2023/05/06 05:21:44;;;;;;;4.07;3.17;;;17.60;92.90;;;;;;4975776;28;20106;-71
2023/05/06 05:24:09;;;;;;;4.80;3.03;;;17.60;93.00;;;;;;4975790;28;20487;-71
2023/05/06 05:26:35;;;;;;;7.28;3.78;;;17.70;93.10;;;;;;4975324;28;20436;-72
2023/05/06 05:29:00;;;;;;;3.72;3.25;;;17.70;93.10;;;;;;4975584;28;20538;-72
2023/05/06 05:31:26;;;;;;;4.30;3.13;;;17.70;93.20;;;;;;4975252;28;20030;-73
2023/05/06 05:33:52;;;;;;;3.20;2.90;;;17.70;93.50;;;;;;4975581;28;20019;-70
2023/05/06 05:36:17;;;;;;;3.88;2.65;;;17.70;93.10;;;;;;4975195;28;20038;-70
2023/05/06 05:38:44;;;;;;;6.22;2.72;;;17.70;93.10;;;;;;4975444;28;20469;-70
2023/05/06 05:41:10;;;;;;;3.35;2.20;;;17.80;93.20;;;;;;4978457;28;20117;-69
2023/05/06 05:43:36;;;;;;;5.18;2.90;;;17.80;93.20;;;;;;4987646;28;20058;-72
2023/05/06 05:46:02;;;;;;;3.30;2.15;;;17.90;93.30;;;;;;4991249;28;20029;-72
2023/05/06 05:48:27;;;;;;;3.00;2.58;;;17.90;93.40;;;;;;4986547;28;20021;-73
2023/05/06 05:50:53;;;;;;;5.32;2.63;;;17.90;93.60;;;;;;4992066;28;20031;-73
2023/05/06 05:53:19;;;;;;;5.80;2.88;;;17.90;93.60;;;;;;4993583;28;20065;-73
2023/05/06 05:55:44;;;;;;;3.33;2.50;;;18.00;93.80;;;;;;4993798;28;20038;-74
2023/05/06 05:58:10;;;;;;;2.60;1.70;;;18.00;93.70;;;;;;4993357;28;20019;-74
2023/05/06 06:00:36;;;;;;;2.17;0.93;;;18.00;93.40;;;;;;4994144;28;20054;-73
2023/05/06 06:03:01;;;;;;;3.05;1.35;;;18.10;93.30;;;;;;4994382;28;20022;-73
2023/05/06 06:05:27;;;;;;;3.97;1.45;;;18.10;93.20;;;;;;4992751;28;20482;-71
2023/05/06 06:07:52;;;;;;;4.68;1.38;;;18.10;93.20;;;;;;4992705;28;20034;-74
2023/05/06 06:10:18;;;;;;;1.67;1.30;;;18.10;93.20;;;;;;4991682;28;20030;-74
2023/05/06 06:12:44;;;;;;;3.17;1.30;;;18.10;93.30;;;;;;4992900;28;20053;-71
2023/05/06 06:15:10;;;;;;;4.03;1.27;;;18.20;93.20;;;;;;4991043;28;20025;-72
2023/05/06 06:17:35;;;;;;;3.35;1.20;;;18.20;93.20;;;;;;4993654;28;20022;-74
2023/05/06 06:20:01;;;;;;;2.22;1.40;;;18.30;93.30;;;;;;4992429;28;20034;-70
2023/05/06 06:22:27;;;;;;;3.53;1.30;;;18.30;93.20;;;;;;4993203;28;20101;-71
2023/05/06 06:24:52;;;;;;;2.20;0.70;;;18.40;93.20;;;;;;4993172;28;20030;-73
2023/05/06 06:27:18;;;;;;;2.95;1.00;;;18.40;93.10;;;;;;4991438;28;20483;-70
2023/05/06 06:29:47;;;;;;;2.75;1.27;;;18.50;93.00;;;;;;4993384;28;20022;-73
2023/05/06 06:32:13;;;;;;;2.33;1.20;;;18.50;92.90;;;;;;4992638;28;20082;-72
2023/05/06 06:34:38;;;;;;;7.10;1.33;;;18.60;92.90;;;;;;4993128;28;20420;-71
2023/05/06 06:37:04;;;;;;;4.00;1.33;;;18.60;92.80;;;;;;4992449;28;20046;-73
2023/05/06 06:39:29;;;;;;;2.72;1.20;;;18.70;92.70;;;;;;4984307;28;20022;-69
2023/05/06 06:41:57;;;;;;;4.03;1.50;;;18.70;92.70;;;;;;4984845;28;20483;-70
2023/05/06 06:44:22;;;;;;;4.18;1.17;;;18.80;92.80;;;;;;4990567;28;20030;-72
2023/05/06 06:46:48;;;;;;;5.65;1.88;;;18.80;92.80;;;;;;4990572;28;20472;-71
2023/05/06 06:49:15;;;;;;;14.57;2.30;;;18.90;92.20;;;;;;4992775;28;20038;-73
2023/05/06 06:51:41;;;;;;;5.20;2.63;;;19.00;93.00;;;;;;4994722;28;20400;-71
2023/05/06 06:54:06;;;;;;;6.22;1.60;;;19.00;93.00;;;;;;4992873;28;20022;-73
2023/05/06 06:56:32;;;;;;;5.75;1.55;;;19.00;92.90;;;;;;4998607;28;20482;-70
2023/05/06 06:58:57;;;;;;;5.65;1.77;;;19.10;92.90;;;;;;5000017;28;20026;-74
2023/05/06 07:01:23;;;;;;;6.07;1.55;;;19.10;92.90;;;;;;4999791;28;20415;-74
2023/05/06 07:03:48;;;;;;;7.72;1.38;;;19.20;92.90;;;;;;4996998;28;20117;-73
2023/05/06 07:06:14;;;;;;;5.15;1.73;;;19.20;92.80;;;;;;4989554;28;20182;-74
2023/05/06 07:08:40;;;;;;;4.90;1.80;;;19.20;92.80;;;;;;4991920;28;20034;-74
2023/05/06 07:11:05;;;;;;;5.07;2.30;;;19.30;92.90;;;;;;4989497;28;20149;-71
2023/05/06 07:13:31;;;;;;;4.07;2.47;;;19.30;93.10;;;;;;4990056;28;20034;-74
2023/05/06 07:15:57;;;;;;;3.50;2.75;;;19.40;93.10;;;;;;4989443;28;20043;-74
2023/05/06 07:18:23;;;;;;;5.07;2.67;;;19.50;93.20;;;;;;4984844;28;20025;-74
2023/05/06 07:20:48;;;;;;;5.97;2.45;;;19.50;93.30;;;;;;4981292;28;20038;-72
2023/05/06 07:23:14;;;;;;;5.30;2.65;;;19.60;93.00;;;;;;4987973;28;20026;-71
2023/05/06 07:25:40;;;;;;;4.47;2.22;;;19.60;93.10;;;;;;4989452;28;20034;-74
2023/05/06 07:28:06;;;;;;;3.60;1.92;;;19.70;93.10;;;;;;4993730;28;20030;-72
2023/05/06 07:30:32;;;;;;;4.43;2.13;;;19.70;93.00;;;;;;4990646;28;20080;-71
2023/05/06 07:32:57;;;;;;;4.53;2.35;;;19.80;92.70;;;;;;5005684;28;20121;-72
2023/05/06 07:35:23;;;;;;;4.10;2.08;;;20.00;92.50;;;;;;4993743;28;20116;-72
2023/05/06 07:37:49;;;;;;;5.60;2.40;;;20.00;92.20;;;;;;5001162;28;20411;-74
2023/05/06 07:40:14;;;;;;;4.45;2.72;;;20.00;92.30;;;;;;4986722;28;20030;-75
2023/05/06 07:42:40;;;;;;;5.45;2.70;;;19.60;92.80;;;;;;4993235;28;20026;-75
2023/05/06 07:45:06;;;;;;;3.92;2.58;;;19.40;93.20;;;;;;4992651;28;20030;-76
2023/05/06 07:47:32;;;;;;;3.70;2.65;;;19.40;93.30;;;;;;4988363;28;20034;-73
2023/05/06 07:49:58;;;;;;;4.45;2.75;;;19.10;93.60;;;;;;4993685;28;20018;-73
2023/05/06 07:52:24;;;;;;;5.15;2.60;;;19.00;93.60;;;;;;4990471;28;20046;-74
2023/05/06 07:54:50;;;;;;;5.10;2.47;;;19.00;94.20;;;;;;5013005;28;20065;-76
2023/05/06 07:57:16;;;;;;;4.10;2.22;;;19.20;94.30;;;;;;5008295;28;20037;-75
2023/05/06 07:59:43;;;;;;;3.58;2.42;;;19.60;95.00;;;;;;4993782;28;20031;-76
2023/05/06 08:02:09;;;;;;;5.95;2.55;;;19.70;94.00;;;;;;5004204;28;20018;-73
2023/05/06 08:04:35;;;;;;;4.63;2.88;;;19.60;93.50;;;;;;4999810;28;20466;-72
2023/05/06 08:07:00;;;;;;;7.88;4.78;;;19.70;93.40;;;;;;4998155;28;20033;-76
2023/05/06 08:09:26;;;;;;;5.43;2.58;;;19.60;96.00;;;;;;5004032;28;20569;-73
2023/05/06 08:11:52;;;;;;;13.50;7.13;;;19.70;93.90;;;;;;4992561;28;20412;-73
2023/05/06 08:14:18;;;;;;;6.28;3.20;;;19.70;95.60;;;;;;4992264;28;20129;-72
2023/05/06 08:16:44;;;;;;;12.35;6.03;;;19.60;94.20;;;;;;5004279;28;20050;-72
2023/05/06 08:19:09;;;;;;;3.72;2.67;;;19.80;96.80;;;;;;4996031;28;20099;-74
2023/05/06 08:21:35;;;;;;;6.03;3.05;;;19.60;93.70;;;;;;4998945;28;20299;-74
2023/05/06 08:24:00;;;;;;;6.25;3.55;;;19.60;94.10;;;;;;4996113;28;20537;-75
2023/05/06 08:26:26;;;;;;;4.82;3.13;;;19.80;96.20;;;;;;5000267;28;20038;-75
2023/05/06 08:28:52;;;;;;;13.52;6.80;;;19.60;93.80;;;;;;4995029;28;20096;-74
2023/05/06 08:31:17;;;;;;;6.22;3.80;;;19.60;96.80;;;;;;4983104;28;20031;-73
2023/05/06 08:33:43;;;;;;;10.88;6.80;;;19.70;95.40;;;;;;4989053;28;20031;-72
2023/05/06 08:36:08;;;;;;;5.50;3.53;;;19.80;98.40;;;;;;4994070;28;20045;-72
2023/05/06 08:38:34;;;;;;;6.20;3.45;;;19.90;98.30;;;;;;4995012;28;20042;-75
2023/05/06 08:41:06;;;;;;;6.95;4.90;;;19.70;94.70;;;;;;5001633;28;20069;-77
2023/05/06 08:43:37;;;;;;;7.40;4.15;;;19.70;96.40;;;;;;4989291;28;20022;-76
2023/05/06 08:46:03;;;;;;;5.82;3.10;;;19.70;96.90;;;;;;4991362;28;20045;-72
2023/05/06 08:48:28;;;;;;;14.75;7.88;;;19.60;95.60;;;;;;4988341;28;20027;-74
2023/05/06 08:50:56;;;;;;;10.48;5.60;;;19.90;99.30;;;;;;4994071;28;20109;-76
2023/05/06 08:53:22;;;;;;;6.68;3.70;;;20.00;97.40;;;;;;4997266;28;20034;-73
2023/05/06 08:55:49;;;;;;;12.57;5.15;;;19.70;94.70;;;;;;4996041;28;20176;-74
2023/05/06 08:58:16;;;;;;;8.55;4.32;;;19.70;97.30;;;;;;4997114;28;20025;-74
2023/05/06 09:00:42;;;;;;;8.95;4.93;;;19.90;96.00;;;;;;5003438;28;20061;-73
2023/05/06 09:03:08;;;;;;;7.88;4.43;;;19.90;94.90;;;;;;5012723;28;20160;-74
2023/05/06 09:05:33;;;;;;;6.53;3.75;;;20.00;95.40;;;;;;4991793;28;20062;-76
2023/05/06 09:07:59;;;;;;;7.47;3.88;;;20.00;94.60;;;;;;4992528;28;20039;-75
2023/05/06 09:10:31;;;;;;;6.60;3.65;;;20.00;95.10;;;;;;4991372;28;20031;-74
2023/05/06 09:12:56;;;;;;;6.78;3.42;;;20.00;94.50;;;;;;4987974;28;20086;-72
2023/05/06 09:15:25;;;;;;;7.68;2.95;;;19.90;94.80;;;;;;4990289;28;20030;-74
2023/05/06 09:17:53;;;;;;;9.63;3.55;;;20.00;94.50;;;;;;4992229;28;20027;-73
2023/05/06 09:20:19;;;;;;;9.05;3.10;;;20.10;94.40;;;;;;4992950;28;20023;-75
2023/05/06 09:22:45;;;;;;;11.95;4.07;;;20.20;94.10;;;;;;4986696;28;20038;-73
2023/05/06 09:25:11;;;;;;;7.55;2.92;;;20.20;94.00;;;;;;4991609;28;20033;-75
2023/05/06 09:27:36;;;;;;;6.50;2.97;;;20.20;92.50;;;;;;4993015;28;20056;-74
2023/05/06 09:30:08;;;;;;;6.05;3.13;;;20.20;93.60;;;;;;4994915;28;20058;-73
2023/05/06 09:32:34;;;;;;;5.63;2.40;;;20.30;93.60;;;;;;4994254;28;20034;-73
2023/05/06 09:35:00;;;;;;;6.38;2.45;;;20.30;93.40;;;;;;4990843;28;20413;-74
2023/05/06 09:37:27;;;;;;;8.52;2.15;;;20.40;93.40;;;;;;4984866;28;20034;-74
2023/05/06 09:39:58;;;;;;;6.18;2.30;;;20.40;93.40;;;;;;4991466;28;20033;-75
2023/05/06 09:42:27;;;;;;;11.23;1.95;;;20.50;93.40;;;;;;4987248;28;20038;-74
2023/05/06 09:44:54;;;;;;;6.85;1.88;;;20.50;93.20;;;;;;4988758;28;20019;-73
2023/05/06 09:47:24;;;;;;;10.05;2.53;;;20.50;93.10;;;;;;4989485;28;20030;-74
2023/05/06 09:49:49;;;;;;;4.97;2.05;;;20.50;93.00;;;;;;4991950;28;20480;-74
2023/05/06 09:52:16;;;;;;;8.70;2.15;;;20.50;93.00;;;;;;4994332;28;20033;-74
2023/05/06 09:54:43;;;;;;;5.68;1.95;;;20.50;92.90;;;;;;5011295;28;20018;-74
2023/05/06 09:57:12;;;;;;;6.55;2.20;;;20.60;92.80;;;;;;5009696;28;20177;-74
2023/05/06 09:59:38;;;;;;;5.00;2.15;;;20.60;92.70;;;;;;4989927;28;20038;-74
2023/05/06 10:02:04;;;;;;;4.70;2.05;;;20.70;92.60;;;;;;4986992;28;20029;-74
2023/05/06 10:04:35;;;;;;;6.95;2.30;;;20.70;92.50;;;;;;4990197;28;20034;-74
2023/05/06 10:07:02;;;;;;;6.43;1.83;;;20.70;92.30;;;;;;4982686;28;20061;-74
2023/05/06 10:09:29;;;;;;;7.97;1.90;;;20.70;92.10;;;;;;4992911;28;20389;-74
2023/05/06 10:11:55;;;;;;;5.53;1.60;;;20.70;91.90;;;;;;4990004;28;20030;-74
2023/05/06 10:14:20;;;;;;;5.13;1.65;;;20.80;91.70;;;;;;4988790;28;20029;-70
2023/05/06 10:16:48;;;;;;;7.18;1.48;;;20.80;91.70;;;;;;4989903;28;20031;-71
2023/05/06 10:19:19;;;;;;;7.80;1.48;;;20.90;91.60;;;;;;4988904;28;20042;-73
2023/05/06 10:21:50;;;;;;;5.07;1.83;;;20.90;91.60;;;;;;4988308;28;20027;-70
2023/05/06 10:24:22;;;;;;;3.95;1.60;;;20.80;91.40;;;;;;4989770;28;20022;-71
2023/05/06 10:26:49;;;;;;;;;;;20.90;91.40;;;;;;4985742;28;20045;-76
2023/05/06 10:29:16;;;;;;;4.90;1.60;;;21.00;90.90;;;;;;4990529;28;19993;-71
2023/05/06 10:31:54;;;;;;;5.07;1.80;;;21.00;91.10;;;;;;4984778;28;20048;-72
2023/05/06 10:34:21;;;;;;;4.47;1.20;;;20.90;91.20;;;;;;4986621;28;20026;-74
2023/05/06 10:36:56;;;;;;;8.27;1.88;;;21.00;91.10;;;;;;4990349;28;20034;-74
2023/05/06 10:39:22;;;;;;;6.15;1.30;;;21.00;91.30;;;;;;4991098;28;20464;-74
2023/05/06 10:41:48;;;;;;;5.80;1.05;;;21.00;91.30;;;;;;4990521;28;20031;-74
2023/05/06 10:44:13;;;;;;;4.57;1.38;;;21.00;91.20;;;;;;4990458;28;20026;-74
2023/05/06 10:46:59;;;;;;;4.15;1.38;;;21.00;91.30;;;;;;4991309;28;20034;-72
2023/05/06 10:49:25;;;;;;;7.93;1.30;;;21.10;91.20;;;;;;4992116;28;20526;-73
2023/05/06 10:52:23;;;;;;;7.10;1.95;;;21.10;91.10;;;;;;4990028;28;20041;-73
2023/05/06 10:54:50;;;;;;;5.72;1.83;;;21.10;91.10;;;;;;4967691;28;20467;-72
2023/05/06 10:57:16;;;;;;;7.78;1.92;;;21.20;90.90;;;;;;4990665;28;20038;-75
2023/05/06 10:59:45;;;;;;;6.65;2.10;;;21.20;91.00;;;;;;4997643;28;20440;-72
2023/05/06 11:02:11;;;;;;;4.50;1.60;;;21.10;91.00;;;;;;4991263;28;20022;-76
2023/05/06 11:04:38;;;;;;;6.47;1.10;;;21.20;91.00;;;;;;4994437;28;20033;-75
2023/05/06 11:07:12;;;;;;;4.13;1.02;;;21.20;91.10;;;;;;4992374;28;20037;-76
2023/05/06 11:10:00;;;;;;;3.72;1.30;;;21.10;91.10;;;;;;4993971;28;20121;-74
2023/05/06 11:13:18;;;;;;;4.30;1.20;;;21.20;91.10;;;;;;4990922;28;20535;-72
2023/05/06 11:15:45;;;;;;;3.80;1.10;;;21.20;91.00;;;;;;4903412;29;20052;-71
2023/05/06 11:18:30;;;;;;;3.90;0.95;;;21.20;91.10;;;;;;4987137;28;20040;-77
2023/05/06 11:21:02;;;;;;;4.40;1.30;;;21.20;91.10;;;;;;4993337;28;20033;-74
2023/05/06 11:23:45;;;;;;;6.90;1.60;;;21.30;90.80;;;;;;4985601;28;20038;-74
2023/05/06 11:26:12;;;;;;;4.28;1.23;;;21.30;90.80;;;;;;4990628;28;20713;-75
2023/05/06 11:28:41;;;;;;;7.10;1.67;;;21.30;90.70;;;;;;4999236;28;20026;-75
2023/05/06 11:31:08;;;;;;;5.03;1.30;;;21.30;90.60;;;;;;5005750;28;20120;-72
2023/05/06 11:33:35;;;;;;;6.43;1.17;;;21.20;90.50;;;;;;4997380;28;20022;-74
2023/05/06 11:36:02;;;;;;;3.75;1.08;;;21.30;90.40;;;;;;4994793;28;20724;-77
2023/05/06 11:38:44;;;;;;;5.45;1.10;;;21.30;89.70;;;;;;4996609;28;20080;-85
2023/05/06 11:41:10;;;;;;;6.40;1.48;;;21.30;90.10;;;;;;4993346;28;20034;-72
2023/05/06 11:43:36;;;;;;;4.07;1.13;;;21.40;90.20;;;;;;5001114;28;20026;-76
2023/05/06 11:46:01;;;;;;;5.95;1.25;;;21.40;90.20;;;;;;5000369;28;20037;-76
2023/05/06 11:48:27;;;;;;;4.13;1.45;;;21.40;90.20;;;;;;4999853;28;20026;-72
2023/05/06 11:50:54;;;;;;;5.00;1.73;;;21.50;90.10;;;;;;5008170;28;20025;-73
2023/05/06 11:53:21;;;;;;;7.07;1.15;;;21.50;90.20;;;;;;5003366;28;20044;-73
2023/05/06 11:55:50;;;;;;;8.73;1.50;;;21.50;90.10;;;;;;4996536;28;20372;-73
2023/05/06 11:58:26;;;;;;;4.45;1.05;;;21.50;90.10;;;;;;5004923;28;20033;-74
2023/05/06 12:00:54;;;;;;;5.63;1.20;;;21.50;90.10;;;;;;5001007;28;20018;-73
2023/05/06 12:03:21;;;;;;;4.68;1.13;;;21.50;90.00;;;;;;4993615;28;20034;-71
2023/05/06 12:05:48;;;;;;;7.72;1.27;;;21.60;90.00;;;;;;4995680;28;20023;-73
2023/05/06 12:08:24;;;;;;;6.32;1.00;;;21.60;89.30;;;;;;4980547;28;20652;-74
2023/05/06 12:10:51;;;;;;;6.53;1.20;;;21.70;89.90;;;;;;4995586;28;20472;-71
2023/05/06 12:13:18;;;;;;;2.70;0.75;;;21.70;89.90;;;;;;4990248;28;20031;-73
2023/05/06 12:15:46;;;;;;;5.35;1.10;;;21.60;90.00;;;;;;4994516;28;20034;-77
2023/05/06 12:18:12;;;;;;;4.35;1.08;;;21.60;90.00;;;;;;4992109;28;20027;-70
2023/05/06 12:20:38;;;;;;;4.20;1.17;;;21.60;90.00;;;;;;4994306;28;20432;-72
2023/05/06 12:23:14;;;;;;;5.88;1.17;;;21.70;89.80;;;;;;4994815;28;20030;-71
2023/05/06 12:25:41;;;;;;;5.22;1.00;;;21.60;89.50;;;;;;4994858;28;20444;-72
2023/05/06 12:28:17;;;;;;;2.75;0.73;;;21.70;89.30;;;;;;4994140;28;20058;-71
2023/05/06 12:30:44;;;;;;;5.00;1.00;;;21.70;89.20;;;;;;4994599;28;20041;-72
2023/05/06 12:33:10;;;;;;;3.28;1.05;;;21.70;88.60;;;;;;4999686;28;20030;-73
2023/05/06 12:35:36;;;;;;;5.10;1.52;;;21.70;88.20;;;;;;5001717;28;20046;-72
2023/05/06 12:38:08;;;;;;;3.22;1.10;;;21.80;88.40;;;;;;4994076;28;20034;-72
2023/05/06 12:40:34;;;;;;;3.42;1.10;;;21.70;88.40;;;;;;4994527;28;20508;-72
2023/05/06 12:43:00;;;;;;;5.97;1.08;;;21.70;88.30;;;;;;4989575;28;20022;-72
2023/05/06 12:45:26;;;;;;;2.90;0.93;;;21.80;87.70;;;;;;4992982;28;20162;-71